Wolvega, Netherlands
Current Conditions -  °F | °C
As of 4:11 AM on Tuesday 21 Oct 2014 (Local Time) from EHLW Reporting Station
Light Rain Light Rain  
Wind Chill: 55°   Ceiling: 1600
Heat Index: 55°   Visibility: 6mi
Dew Point: 54°   Wind: 5mph
Humidity: 94%   Direction: 220°SW
Pressure: 29.74"   Gusts: NA
Location:  52.88°N, 6°E
Report Text: EHLW 210211Z AUTO 22004KT 9000 -RADZ OVC016 13/12 Q1007 RERA REDZ WHT
Loading
Personal Weather Stations






























Interactive Weather Map
Tropical Storm Tracking
New forecast layout! Learn more

10-Day Weather Forecast

Advertisements
Track Severe Weather on mobile